sensor_id;sensor_type;location;lat;lon;timestamp;pressure;altitude;pressure_sealevel;temperature;humidity
11415;BME280;5763;42.714;23.244;2023-06-14T00:01:49;94289.00;;;18.50;100.00
11415;BME280;5763;42.714;23.244;2023-06-14T00:04:16;94287.72;;;18.51;100.00
11415;BME280;5763;42.714;23.244;2023-06-14T00:06:44;94293.75;;;18.50;100.00
11415;BME280;5763;42.714;23.244;2023-06-14T00:09:11;94292.53;;;18.45;100.00
11415;BME280;5763;42.714;23.244;2023-06-14T00:11:41;94284.97;;;18.46;100.00
11415;BME280;5763;42.714;23.244;2023-06-14T00:14:08;94291.25;;;18.52;100.00
11415;BME280;5763;42.714;23.244;2023-06-14T00:16:34;94283.47;;;18.45;100.00
11415;BME280;5763;42.714;23.244;2023-06-14T00:19:02;94286.50;;;18.47;100.00
11415;BME280;5763;42.714;23.244;2023-06-14T00:21:29;94283.47;;;18.45;100.00
11415;BME280;5763;42.714;23.244;2023-06-14T00:23:58;94277.19;;;18.44;100.00
11415;BME280;5763;42.714;23.244;2023-06-14T00:26:25;94257.06;;;18.33;100.00
11415;BME280;5763;42.714;23.244;2023-06-14T00:28:54;94277.69;;;18.43;100.00
11415;BME280;5763;42.714;23.244;2023-06-14T00:31:22;94267.59;;;18.40;100.00
11415;BME280;5763;42.714;23.244;2023-06-14T00:33:48;94273.16;;;18.40;100.00
11415;BME280;5763;42.714;23.244;2023-06-14T00:36:15;94275.16;;;18.45;100.00
11415;BME280;5763;42.714;23.244;2023-06-14T00:38:42;94267.13;;;18.36;100.00
11415;BME280;5763;42.714;23.244;2023-06-14T00:41:09;94261.84;;;18.38;100.00
11415;BME280;5763;42.714;23.244;2023-06-14T00:43:35;94254.03;;;18.36;100.00
11415;BME280;5763;42.714;23.244;2023-06-14T00:46:03;94265.88;;;18.37;100.00
11415;BME280;5763;42.714;23.244;2023-06-14T00:48:30;94266.09;;;18.39;100.00
11415;BME280;5763;42.714;23.244;2023-06-14T00:50:58;94271.41;;;18.37;100.00
11415;BME280;5763;42.714;23.244;2023-06-14T00:53:29;94262.09;;;18.28;100.00
11415;BME280;5763;42.714;23.244;2023-06-14T00:55:59;94259.06;;;18.32;100.00
11415;BME280;5763;42.714;23.244;2023-06-14T00:58:26;94259.84;;;18.33;100.00
11415;BME280;5763;42.714;23.244;2023-06-14T01:00:53;94271.16;;;18.35;100.00
11415;BME280;5763;42.714;23.244;2023-06-14T01:03:22;94266.91;;;18.28;100.00
11415;BME280;5763;42.714;23.244;2023-06-14T01:06:05;94254.56;;;18.23;100.00
11415;BME280;5763;42.714;23.244;2023-06-14T01:08:45;94261.34;;;18.34;100.00
11415;BME280;5763;42.714;23.244;2023-06-14T01:11:18;94267.59;;;18.40;100.00
11415;BME280;5763;42.714;23.244;2023-06-14T01:13:48;94254.03;;;18.31;100.00
11415;BME280;5763;42.714;23.244;2023-06-14T01:16:16;94260.06;;;18.35;100.00
11415;BME280;5763;42.714;23.244;2023-06-14T01:18:45;94262.34;;;18.36;100.00
11415;BME280;5763;42.714;23.244;2023-06-14T01:21:20;94263.09;;;18.37;100.00
11415;BME280;5763;42.714;23.244;2023-06-14T01:23:48;94261.84;;;18.38;100.00
11415;BME280;5763;42.714;23.244;2023-06-14T01:26:18;94265.34;;;18.38;100.00
11415;BME280;5763;42.714;23.244;2023-06-14T01:28:45;94258.78;;;18.41;100.00
11415;BME280;5763;42.714;23.244;2023-06-14T01:31:16;94253.75;;;18.40;100.00
11415;BME280;5763;42.714;23.244;2023-06-14T01:33:44;94262.06;;;18.45;100.00
11415;BME280;5763;42.714;23.244;2023-06-14T01:36:12;94259.56;;;18.42;100.00
11415;BME280;5763;42.714;23.244;2023-06-14T01:38:41;94242.72;;;18.34;100.00
11415;BME280;5763;42.714;23.244;2023-06-14T01:41:10;94259.06;;;18.38;100.00
11415;BME280;5763;42.714;23.244;2023-06-14T01:43:38;94257.84;;;18.33;100.00
11415;BME280;5763;42.714;23.244;2023-06-14T01:46:06;94255.06;;;18.27;100.00
11415;BME280;5763;42.714;23.244;2023-06-14T01:48:34;94261.38;;;18.23;100.00
11415;BME280;5763;42.714;23.244;2023-06-14T01:51:01;94266.38;;;18.29;100.00
11415;BME280;5763;42.714;23.244;2023-06-14T01:53:28;94268.16;;;18.22;100.00
11415;BME280;5763;42.714;23.244;2023-06-14T01:55:55;94269.19;;;18.18;100.00
11415;BME280;5763;42.714;23.244;2023-06-14T01:58:23;94262.09;;;18.28;100.00
11415;BME280;5763;42.714;23.244;2023-06-14T02:26:38;94288.53;;;18.29;100.00
11415;BME280;5763;42.714;23.244;2023-06-14T02:29:06;94295.09;;;18.21;100.00
11415;BME280;5763;42.714;23.244;2023-06-14T02:31:35;94292.09;;;18.13;100.00
11415;BME280;5763;42.714;23.244;2023-06-14T02:34:02;94290.88;;;18.09;100.00
11415;BME280;5763;42.714;23.244;2023-06-14T02:36:29;94295.38;;;18.17;100.00
11415;BME280;5763;42.714;23.244;2023-06-14T02:38:56;94284.31;;;18.12;100.00
11415;BME280;5763;42.714;23.244;2023-06-14T02:41:24;94289.34;;;18.13;100.00
11415;BME280;5763;42.714;23.244;2023-06-14T02:43:53;94294.38;;;18.15;100.00
11415;BME280;5763;42.714;23.244;2023-06-14T02:46:21;94282.78;;;18.17;100.00
11415;BME280;5763;42.714;23.244;2023-06-14T02:48:48;94283.03;;;18.24;100.00
11415;BME280;5763;42.714;23.244;2023-06-14T02:51:14;94283.50;;;18.28;100.00
11415;BME280;5763;42.714;23.244;2023-06-14T02:53:41;94277.72;;;18.26;100.00
11415;BME280;5763;42.714;23.244;2023-06-14T02:56:09;94239.78;;;17.99;100.00
11415;BME280;5763;42.714;23.244;2023-06-14T02:58:37;94283.28;;;18.21;100.00
11415;BME280;5763;42.714;23.244;2023-06-14T03:01:06;94290.81;;;18.26;100.00
11415;BME280;5763;42.714;23.244;2023-06-14T03:03:33;94289.56;;;18.27;100.00
11415;BME280;5763;42.714;23.244;2023-06-14T03:05:59;94291.56;;;18.26;100.00
11415;BME280;5763;42.714;23.244;2023-06-14T03:08:30;94290.81;;;18.26;100.00
11415;BME280;5763;42.714;23.244;2023-06-14T03:10:58;94297.88;;;18.27;100.00
11415;BME280;5763;42.714;23.244;2023-06-14T03:13:27;94294.38;;;18.21;100.00
11415;BME280;5763;42.714;23.244;2023-06-14T03:15:57;94304.41;;;18.29;100.00
11415;BME280;5763;42.714;23.244;2023-06-14T03:18:28;94311.44;;;18.30;100.00
11415;BME280;5763;42.714;23.244;2023-06-14T03:20:54;94315.47;;;18.35;100.00
11415;BME280;5763;42.714;23.244;2023-06-14T03:23:22;94320.28;;;18.34;100.00
11415;BME280;5763;42.714;23.244;2023-06-14T03:25:49;94309.22;;;18.23;100.00
11415;BME280;5763;42.714;23.244;2023-06-14T03:28:16;94312.22;;;18.19;100.00
11415;BME280;5763;42.714;23.244;2023-06-14T03:30:43;94311.72;;;18.27;100.00
11415;BME280;5763;42.714;23.244;2023-06-14T03:33:10;94319.53;;;18.28;100.00
11415;BME280;5763;42.714;23.244;2023-06-14T03:35:38;94311.94;;;18.28;100.00
11415;BME280;5763;42.714;23.244;2023-06-14T03:38:05;94314.50;;;18.27;100.00
11415;BME280;5763;42.714;23.244;2023-06-14T03:40:31;94312.50;;;18.22;100.00
11415;BME280;5763;42.714;23.244;2023-06-14T03:42:58;94306.94;;;18.22;100.00
11415;BME280;5763;42.714;23.244;2023-06-14T03:45:25;94322.03;;;18.32;100.00
11415;BME280;5763;42.714;23.244;2023-06-14T03:47:52;94309.72;;;18.33;100.00
11415;BME280;5763;42.714;23.244;2023-06-14T03:50:20;94305.16;;;18.29;100.00
11415;BME280;5763;42.714;23.244;2023-06-14T03:52:48;94329.06;;;18.44;100.00
11415;BME280;5763;42.714;23.244;2023-06-14T03:55:16;94313.66;;;18.48;100.00
11415;BME280;5763;42.714;23.244;2023-06-14T03:57:43;94328.28;;;18.49;100.00
11415;BME280;5763;42.714;23.244;2023-06-14T04:00:10;94319.97;;;18.49;100.00
11415;BME280;5763;42.714;23.244;2023-06-14T04:02:38;94322.25;;;18.50;100.00
11415;BME280;5763;42.714;23.244;2023-06-14T04:05:05;94321.50;;;18.44;100.00
11415;BME280;5763;42.714;23.244;2023-06-14T04:07:34;94314.72;;;18.40;100.00
11415;BME280;5763;42.714;23.244;2023-06-14T04:10:12;94321.28;;;18.37;100.00
11415;BME280;5763;42.714;23.244;2023-06-14T04:12:39;94318.25;;;18.40;100.00
11415;BME280;5763;42.714;23.244;2023-06-14T04:15:07;94327.50;;;18.54;100.00
11415;BME280;5763;42.714;23.244;2023-06-14T04:17:34;94320.69;;;18.55;100.00
11415;BME280;5763;42.714;23.244;2023-06-14T04:20:02;94322.97;;;18.56;100.00
11415;BME280;5763;42.714;23.244;2023-06-14T04:22:30;94326.97;;;18.61;100.00
11415;BME280;5763;42.714;23.244;2023-06-14T04:24:57;94319.75;;;18.47;100.00
11415;BME280;5763;42.714;23.244;2023-06-14T04:27:26;94316.22;;;18.46;100.00
11415;BME280;5763;42.714;23.244;2023-06-14T04:29:54;94320.97;;;18.51;100.00
11415;BME280;5763;42.714;23.244;2023-06-14T04:32:23;94324.72;;;18.59;100.00
11415;BME280;5763;42.714;23.244;2023-06-14T04:34:53;94322.69;;;18.65;100.00
11415;BME280;5763;42.714;23.244;2023-06-14T04:37:20;94329.72;;;18.66;100.00
11415;BME280;5763;42.714;23.244;2023-06-14T04:39:47;94324.69;;;18.70;100.00
11415;BME280;5763;42.714;23.244;2023-06-14T04:42:14;94318.66;;;18.66;100.00
11415;BME280;5763;42.714;23.244;2023-06-14T04:44:43;94329.72;;;18.72;100.00
11415;BME280;5763;42.714;23.244;2023-06-14T04:47:10;94326.88;;;18.83;100.00
11415;BME280;5763;42.714;23.244;2023-06-14T04:49:38;94328.88;;;18.88;100.00
11415;BME280;5763;42.714;23.244;2023-06-14T04:52:06;94328.91;;;18.82;100.00
11415;BME280;5763;42.714;23.244;2023-06-14T04:54:35;94332.13;;;18.92;100.00
11415;BME280;5763;42.714;23.244;2023-06-14T04:57:03;94332.88;;;18.98;100.00
11415;BME280;5763;42.714;23.244;2023-06-14T04:59:31;94341.97;;;18.93;100.00
11415;BME280;5763;42.714;23.244;2023-06-14T05:02:00;94329.38;;;18.86;100.00
11415;BME280;5763;42.714;23.244;2023-06-14T05:04:26;94343.47;;;18.94;100.00
11415;BME280;5763;42.714;23.244;2023-06-14T05:06:54;94344.19;;;18.94;100.00
11415;BME280;5763;42.714;23.244;2023-06-14T05:09:21;94349.19;;;19.07;100.00
11415;BME280;5763;42.714;23.244;2023-06-14T05:11:48;94349.94;;;19.07;100.00
11415;BME280;5763;42.714;23.244;2023-06-14T05:14:16;94355.94;;;19.17;100.00
11415;BME280;5763;42.714;23.244;2023-06-14T05:16:42;94346.09;;;19.16;100.00
11415;BME280;5763;42.714;23.244;2023-06-14T05:19:11;94351.63;;;19.21;100.00
11415;BME280;5763;42.714;23.244;2023-06-14T05:21:37;94353.16;;;19.22;100.00
11415;BME280;5763;42.714;23.244;2023-06-14T05:24:04;94360.91;;;19.35;100.00
11415;BME280;5763;42.714;23.244;2023-06-14T05:26:31;94370.03;;;19.30;100.00
11415;BME280;5763;42.714;23.244;2023-06-14T05:28:59;94372.50;;;19.33;100.00
11415;BME280;5763;42.714;23.244;2023-06-14T05:31:27;94376.09;;;19.28;100.00
11415;BME280;5763;42.714;23.244;2023-06-14T05:33:54;94381.66;;;19.23;100.00
11415;BME280;5763;42.714;23.244;2023-06-14T05:36:22;94375.13;;;19.15;100.00
11415;BME280;5763;42.714;23.244;2023-06-14T05:38:49;94374.63;;;19.11;100.00
11415;BME280;5763;42.714;23.244;2023-06-14T05:41:23;94375.41;;;19.11;100.00
11415;BME280;5763;42.714;23.244;2023-06-14T05:43:49;94377.91;;;19.15;100.00
11415;BME280;5763;42.714;23.244;2023-06-14T05:46:16;94372.91;;;19.08;100.00
11415;BME280;5763;42.714;23.244;2023-06-14T05:48:47;94387.56;;;19.03;100.00
11415;BME280;5763;42.714;23.244;2023-06-14T05:51:14;94383.22;;;19.07;100.00
11415;BME280;5763;42.714;23.244;2023-06-14T05:53:46;94383.69;;;19.17;100.00
11415;BME280;5763;42.714;23.244;2023-06-14T05:56:13;94385.88;;;19.35;100.00
11415;BME280;5763;42.714;23.244;2023-06-14T05:58:39;94388.09;;;19.42;100.00
11415;BME280;5763;42.714;23.244;2023-06-14T06:16:36;94396.44;;;19.77;100.00
11415;BME280;5763;42.714;23.244;2023-06-14T06:19:04;94381.44;;;19.56;100.00
11415;BME280;5763;42.714;23.244;2023-06-14T06:21:30;94398.13;;;19.56;100.00
11415;BME280;5763;42.714;23.244;2023-06-14T06:23:57;94391.28;;;19.57;100.00
11415;BME280;5763;42.714;23.244;2023-06-14T06:26:24;94401.59;;;19.62;100.00
11415;BME280;5763;42.714;23.244;2023-06-14T06:28:52;94406.78;;;19.76;100.00
11415;BME280;5763;42.714;23.244;2023-06-14T06:31:18;94398.75;;;19.73;99.57
11415;BME280;5763;42.714;23.244;2023-06-14T06:33:46;94402.72;;;19.83;99.04
11415;BME280;5763;42.714;23.244;2023-06-14T06:36:13;94404.47;;;19.86;98.77
11415;BME280;5763;42.714;23.244;2023-06-14T06:38:41;94405.69;;;19.90;98.84
11415;BME280;5763;42.714;23.244;2023-06-14T06:41:07;94399.63;;;19.92;98.69
11415;BME280;5763;42.714;23.244;2023-06-14T06:43:34;94401.91;;;19.88;99.30
11415;BME280;5763;42.714;23.244;2023-06-14T06:46:01;94395.47;;;20.04;98.26
11415;BME280;5763;42.714;23.244;2023-06-14T06:48:27;94390.91;;;20.06;98.46
11415;BME280;5763;42.714;23.244;2023-06-14T06:50:56;94396.16;;;20.15;99.34
11415;BME280;5763;42.714;23.244;2023-06-14T06:53:23;94398.81;;;20.26;99.10
11415;BME280;5763;42.714;23.244;2023-06-14T06:55:50;94401.84;;;20.28;97.97
11415;BME280;5763;42.714;23.244;2023-06-14T06:58:17;94399.47;;;20.38;98.08
11415;BME280;5763;42.714;23.244;2023-06-14T07:00:44;94415.53;;;20.50;97.38
11415;BME280;5763;42.714;23.244;2023-06-14T07:03:11;94412.53;;;20.48;96.22
11415;BME280;5763;42.714;23.244;2023-06-14T07:05:38;94408.88;;;20.59;94.85
11415;BME280;5763;42.714;23.244;2023-06-14T07:08:06;94410.50;;;20.49;95.29
11415;BME280;5763;42.714;23.244;2023-06-14T07:10:33;94406.91;;;20.54;92.46
11415;BME280;5763;42.714;23.244;2023-06-14T07:13:00;94411.69;;;20.53;93.34
11415;BME280;5763;42.714;23.244;2023-06-14T07:15:26;94387.13;;;20.57;94.17
11415;BME280;5763;42.714;23.244;2023-06-14T07:17:53;94398.69;;;20.67;94.79
11415;BME280;5763;42.714;23.244;2023-06-14T07:20:25;94405.16;;;20.75;94.68
11415;BME280;5763;42.714;23.244;2023-06-14T07:22:51;94395.69;;;20.83;93.78
11415;BME280;5763;42.714;23.244;2023-06-14T07:25:19;94393.66;;;20.89;91.26
11415;BME280;5763;42.714;23.244;2023-06-14T07:27:47;94394.06;;;21.17;89.26
11415;BME280;5763;42.714;23.244;2023-06-14T07:30:14;94401.28;;;21.26;90.38
11415;BME280;5763;42.714;23.244;2023-06-14T07:32:41;94402.78;;;21.27;91.62
11415;BME280;5763;42.714;23.244;2023-06-14T07:35:08;94391.44;;;21.25;91.13
11415;BME280;5763;42.714;23.244;2023-06-14T07:37:35;94395.63;;;21.13;90.91
11415;BME280;5763;42.714;23.244;2023-06-14T07:40:02;94398.94;;;21.11;90.63
11415;BME280;5763;42.714;23.244;2023-06-14T07:42:34;94396.22;;;21.06;89.73
11415;BME280;5763;42.714;23.244;2023-06-14T07:45:01;94404.34;;;21.04;89.82
11415;BME280;5763;42.714;23.244;2023-06-14T07:47:28;94405.09;;;21.04;88.37
11415;BME280;5763;42.714;23.244;2023-06-14T07:49:55;94413.59;;;21.12;88.19
11415;BME280;5763;42.714;23.244;2023-06-14T07:52:22;94404.81;;;21.08;89.34
11415;BME280;5763;42.714;23.244;2023-06-14T07:54:48;94413.84;;;21.14;89.04
11415;BME280;5763;42.714;23.244;2023-06-14T07:57:15;94412.78;;;21.17;89.86
11415;BME280;5763;42.714;23.244;2023-06-14T07:59:43;94414.16;;;21.29;89.64
11415;BME280;5763;42.714;23.244;2023-06-14T08:02:10;94422.88;;;21.38;88.87
11415;BME280;5763;42.714;23.244;2023-06-14T08:04:37;94421.84;;;21.41;88.48
11415;BME280;5763;42.714;23.244;2023-06-14T08:07:04;94426.31;;;21.63;88.34
11415;BME280;5763;42.714;23.244;2023-06-14T08:09:31;94418.66;;;21.87;88.17
11415;BME280;5763;42.714;23.244;2023-06-14T08:11:58;94431.28;;;22.07;87.42
11415;BME280;5763;42.714;23.244;2023-06-14T08:14:25;94431.09;;;22.18;87.14
11415;BME280;5763;42.714;23.244;2023-06-14T08:16:53;94442.78;;;22.48;85.91
11415;BME280;5763;42.714;23.244;2023-06-14T08:19:20;94431.56;;;22.66;82.98
11415;BME280;5763;42.714;23.244;2023-06-14T08:21:47;94450.56;;;22.68;79.51
11415;BME280;5763;42.714;23.244;2023-06-14T08:24:14;94443.16;;;22.70;77.58
11415;BME280;5763;42.714;23.244;2023-06-14T08:26:41;94429.72;;;22.69;79.12
11415;BME280;5763;42.714;23.244;2023-06-14T08:29:08;94455.94;;;22.79;79.95
11415;BME280;5763;42.714;23.244;2023-06-14T08:31:34;94444.97;;;22.81;79.82
11415;BME280;5763;42.714;23.244;2023-06-14T08:34:02;94444.97;;;22.68;79.83
11415;BME280;5763;42.714;23.244;2023-06-14T08:36:30;94440.25;;;22.63;77.71
11415;BME280;5763;42.714;23.244;2023-06-14T08:38:56;94438.56;;;22.41;78.23
11415;BME280;5763;42.714;23.244;2023-06-14T08:41:23;94435.31;;;22.24;78.35
11415;BME280;5763;42.714;23.244;2023-06-14T08:43:50;94441.06;;;22.13;80.03
11415;BME280;5763;42.714;23.244;2023-06-14T08:46:18;94434.59;;;22.05;80.80
11415;BME280;5763;42.714;23.244;2023-06-14T08:48:47;94436.72;;;21.99;81.61
11415;BME280;5763;42.714;23.244;2023-06-14T08:51:18;94424.28;;;22.00;80.90
11415;BME280;5763;42.714;23.244;2023-06-14T08:53:51;94423.09;;;21.96;81.53
11415;BME280;5763;42.714;23.244;2023-06-14T08:56:19;94426.09;;;21.98;81.99
11415;BME280;5763;42.714;23.244;2023-06-14T08:58:47;94425.91;;;22.09;80.95
11415;BME280;5763;42.714;23.244;2023-06-14T09:01:15;94423.13;;;22.09;81.76
11415;BME280;5763;42.714;23.244;2023-06-14T09:03:43;94417.56;;;22.09;83.47
11415;BME280;5763;42.714;23.244;2023-06-14T09:06:11;94427.13;;;22.13;83.33
11415;BME280;5763;42.714;23.244;2023-06-14T09:08:44;94426.50;;;22.20;80.59
11415;BME280;5763;42.714;23.244;2023-06-14T09:11:11;94425.59;;;22.44;80.21
11415;BME280;5763;42.714;23.244;2023-06-14T09:13:40;94420.50;;;22.74;79.57
11415;BME280;5763;42.714;23.244;2023-06-14T09:16:07;94407.00;;;22.91;79.67
11415;BME280;5763;42.714;23.244;2023-06-14T09:18:35;94417.97;;;23.02;80.33
11415;BME280;5763;42.714;23.244;2023-06-14T09:21:02;94412.38;;;23.02;78.65
11415;BME280;5763;42.714;23.244;2023-06-14T09:23:29;94418.50;;;23.00;78.87
11415;BME280;5763;42.714;23.244;2023-06-14T09:25:57;94419.97;;;23.14;77.94
11415;BME280;5763;42.714;23.244;2023-06-14T09:28:27;94417.31;;;23.22;76.92
11415;BME280;5763;42.714;23.244;2023-06-14T09:30:54;94412.16;;;23.26;76.41
11415;BME280;5763;42.714;23.244;2023-06-14T09:33:21;94420.09;;;23.22;75.39
11415;BME280;5763;42.714;23.244;2023-06-14T09:35:51;94423.31;;;23.13;74.63
11415;BME280;5763;42.714;23.244;2023-06-14T09:38:18;94424.06;;;23.39;74.34
11415;BME280;5763;42.714;23.244;2023-06-14T09:40:45;94413.50;;;23.58;74.54
11415;BME280;5763;42.714;23.244;2023-06-14T09:43:14;94407.78;;;23.64;76.19
11415;BME280;5763;42.714;23.244;2023-06-14T09:45:41;94412.88;;;23.86;75.53
11415;BME280;5763;42.714;23.244;2023-06-14T09:48:11;94409.44;;;24.13;74.55
11415;BME280;5763;42.714;23.244;2023-06-14T09:50:44;94408.66;;;24.26;72.10
11415;BME280;5763;42.714;23.244;2023-06-14T09:53:12;94405.75;;;24.39;68.34
11415;BME280;5763;42.714;23.244;2023-06-14T09:55:41;94407.09;;;24.58;68.34
11415;BME280;5763;42.714;23.244;2023-06-14T09:58:09;94408.34;;;24.78;65.87
11415;BME280;5763;42.714;23.244;2023-06-14T10:00:39;94398.22;;;24.75;65.67
11415;BME280;5763;42.714;23.244;2023-06-14T10:03:13;94399.19;;;24.57;67.24
11415;BME280;5763;42.714;23.244;2023-06-14T10:05:43;94392.94;;;24.64;67.76
11415;BME280;5763;42.714;23.244;2023-06-14T10:08:13;94393.63;;;24.85;66.66
11415;BME280;5763;42.714;23.244;2023-06-14T10:10:42;94387.28;;;25.12;66.92
11415;BME280;5763;42.714;23.244;2023-06-14T10:13:10;94388.75;;;25.41;65.51
11415;BME280;5763;42.714;23.244;2023-06-14T10:15:46;94381.56;;;25.68;65.95
11415;BME280;5763;42.714;23.244;2023-06-14T10:18:22;94371.69;;;25.75;65.85
11415;BME280;5763;42.714;23.244;2023-06-14T10:20:55;94376.25;;;25.42;62.45
11415;BME280;5763;42.714;23.244;2023-06-14T10:23:26;94371.38;;;25.35;64.03
11415;BME280;5763;42.714;23.244;2023-06-14T10:25:56;94374.13;;;25.28;65.17
11415;BME280;5763;42.714;23.244;2023-06-14T10:28:25;94369.25;;;25.28;62.74
11415;BME280;5763;42.714;23.244;2023-06-14T10:31:09;94363.81;;;25.23;63.99
11415;BME280;5763;42.714;23.244;2023-06-14T10:33:40;94361.88;;;25.46;63.17
11415;BME280;5763;42.714;23.244;2023-06-14T10:36:28;94363.50;;;25.34;64.35
11415;BME280;5763;42.714;23.244;2023-06-14T10:38:57;94362.03;;;25.05;65.26
11415;BME280;5763;42.714;23.244;2023-06-14T10:41:26;94353.19;;;24.93;65.17
11415;BME280;5763;42.714;23.244;2023-06-14T10:44:11;94362.47;;;25.16;65.82
11415;BME280;5763;42.714;23.244;2023-06-14T10:47:00;94355.38;;;25.58;64.08
11415;BME280;5763;42.714;23.244;2023-06-14T10:49:38;94346.63;;;25.77;64.80
11415;BME280;5763;42.714;23.244;2023-06-14T10:52:11;94349.72;;;25.43;63.21
11415;BME280;5763;42.714;23.244;2023-06-14T10:55:05;94349.94;;;25.17;63.99
11415;BME280;5763;42.714;23.244;2023-06-14T10:57:35;94345.66;;;25.16;64.97
11415;BME280;5763;42.714;23.244;2023-06-14T11:00:03;94333.22;;;25.32;65.25
11415;BME280;5763;42.714;23.244;2023-06-14T11:03:06;94334.09;;;25.78;63.88
11415;BME280;5763;42.714;23.244;2023-06-14T11:05:49;94316.47;;;25.47;61.95
11415;BME280;5763;42.714;23.244;2023-06-14T11:11:18;94332.72;;;25.06;64.33
11415;BME280;5763;42.714;23.244;2023-06-14T11:13:45;94318.66;;;24.98;65.69
11415;BME280;5763;42.714;23.244;2023-06-14T11:16:13;94308.03;;;25.40;61.30
11415;BME280;5763;42.714;23.244;2023-06-14T11:18:42;94304.19;;;25.80;62.31
11415;BME280;5763;42.714;23.244;2023-06-14T11:21:10;94304.66;;;26.22;61.97
11415;BME280;5763;42.714;23.244;2023-06-14T11:23:37;94307.06;;;26.03;62.77
11415;BME280;5763;42.714;23.244;2023-06-14T11:26:04;94314.69;;;25.80;63.10
11415;BME280;5763;42.714;23.244;2023-06-14T11:28:39;94311.06;;;25.57;63.81
11415;BME280;5763;42.714;23.244;2023-06-14T11:31:07;94315.69;;;25.39;63.08
11415;BME280;5763;42.714;23.244;2023-06-14T11:33:34;94311.72;;;25.27;63.03
11415;BME280;5763;42.714;23.244;2023-06-14T11:36:04;94314.00;;;25.36;62.63
11415;BME280;5763;42.714;23.244;2023-06-14T11:38:35;94317.22;;;25.48;61.04
11415;BME280;5763;42.714;23.244;2023-06-14T11:41:02;94307.00;;;25.80;62.01
11415;BME280;5763;42.714;23.244;2023-06-14T11:43:29;94307.06;;;26.25;60.39
11415;BME280;5763;42.714;23.244;2023-06-14T11:45:58;94291.53;;;26.54;55.59
11415;BME280;5763;42.714;23.244;2023-06-14T11:48:35;94290.31;;;26.95;56.09
11415;BME280;5763;42.714;23.244;2023-06-14T11:51:04;94284.41;;;27.30;56.57
11415;BME280;5763;42.714;23.244;2023-06-14T11:53:31;94290.00;;;27.70;54.21
11415;BME280;5763;42.714;23.244;2023-06-14T11:55:58;94280.00;;;27.84;54.71
11415;BME280;5763;42.714;23.244;2023-06-14T11:58:25;94275.78;;;28.00;51.38
11415;BME280;5763;42.714;23.244;2023-06-14T12:00:53;94274.75;;;28.12;50.92
11415;BME280;5763;42.714;23.244;2023-06-14T12:03:23;94277.09;;;28.23;51.99
11415;BME280;5763;42.714;23.244;2023-06-14T12:05:50;94261.78;;;28.34;51.72
11415;BME280;5763;42.714;23.244;2023-06-14T12:08:21;94272.53;;;28.52;47.71
11415;BME280;5763;42.714;23.244;2023-06-14T12:10:59;94263.91;;;28.50;48.50
11415;BME280;5763;42.714;23.244;2023-06-14T12:13:26;94260.44;;;28.59;48.65
11415;BME280;5763;42.714;23.244;2023-06-14T12:15:56;94259.78;;;28.68;48.91
11415;BME280;5763;42.714;23.244;2023-06-14T12:18:31;94258.63;;;28.54;48.22
11415;BME280;5763;42.714;23.244;2023-06-14T12:20:59;94258.28;;;28.26;49.15
11415;BME280;5763;42.714;23.244;2023-06-14T12:23:42;94239.38;;;28.19;50.35
11415;BME280;5763;42.714;23.244;2023-06-14T12:26:12;94252.84;;;28.03;50.52
11415;BME280;5763;42.714;23.244;2023-06-14T12:28:40;94246.16;;;27.99;50.39
11415;BME280;5763;42.714;23.244;2023-06-14T12:31:07;94256.63;;;28.23;50.28
11415;BME280;5763;42.714;23.244;2023-06-14T12:33:34;94255.81;;;28.54;49.57
11415;BME280;5763;42.714;23.244;2023-06-14T12:36:03;94250.91;;;28.89;48.67
11415;BME280;5763;42.714;23.244;2023-06-14T12:38:30;94248.84;;;28.89;46.78
11415;BME280;5763;42.714;23.244;2023-06-14T12:40:58;94235.13;;;28.35;47.59
11415;BME280;5763;42.714;23.244;2023-06-14T12:43:25;94232.94;;;27.84;47.63
11415;BME280;5763;42.714;23.244;2023-06-14T12:45:52;94228.06;;;27.85;46.98
11415;BME280;5763;42.714;23.244;2023-06-14T12:48:19;94228.88;;;28.19;44.95
11415;BME280;5763;42.714;23.244;2023-06-14T12:50:47;94226.16;;;28.29;45.90
11415;BME280;5763;42.714;23.244;2023-06-14T12:53:14;94218.53;;;28.22;47.79
11415;BME280;5763;42.714;23.244;2023-06-14T12:55:41;94209.78;;;27.93;48.84
11415;BME280;5763;42.714;23.244;2023-06-14T12:58:09;94201.97;;;27.60;49.22
11415;BME280;5763;42.714;23.244;2023-06-14T13:00:37;94202.59;;;27.19;49.73
11415;BME280;5763;42.714;23.244;2023-06-14T13:03:05;94213.59;;;26.85;50.58
11415;BME280;5763;42.714;23.244;2023-06-14T13:05:31;94219.88;;;26.61;51.13
11415;BME280;5763;42.714;23.244;2023-06-14T13:07:58;94209.59;;;26.33;52.42
11415;BME280;5763;42.714;23.244;2023-06-14T13:10:26;94215.63;;;26.15;52.90
11415;BME280;5763;42.714;23.244;2023-06-14T13:12:52;94224.59;;;25.91;54.68
11415;BME280;5763;42.714;23.244;2023-06-14T13:15:21;94219.34;;;25.72;55.00
11415;BME280;5763;42.714;23.244;2023-06-14T13:17:47;94216.69;;;25.52;55.17
11415;BME280;5763;42.714;23.244;2023-06-14T13:20:14;94223.22;;;25.39;55.26
11415;BME280;5763;42.714;23.244;2023-06-14T13:22:41;94224.09;;;25.19;56.16
11415;BME280;5763;42.714;23.244;2023-06-14T13:25:08;94228.53;;;25.07;55.38
11415;BME280;5763;42.714;23.244;2023-06-14T13:27:35;94228.13;;;24.96;56.83
11415;BME280;5763;42.714;23.244;2023-06-14T13:30:03;94233.50;;;24.86;57.47
11415;BME280;5763;42.714;23.244;2023-06-14T13:32:32;94248.19;;;24.72;58.40
11415;BME280;5763;42.714;23.244;2023-06-14T13:34:59;94251.88;;;24.59;59.89
11415;BME280;5763;42.714;23.244;2023-06-14T13:37:26;94245.34;;;24.36;60.79
11415;BME280;5763;42.714;23.244;2023-06-14T13:39:52;94269.09;;;24.15;62.25
11415;BME280;5763;42.714;23.244;2023-06-14T13:42:19;94260.88;;;23.89;62.23
11415;BME280;5763;42.714;23.244;2023-06-14T13:44:46;94274.81;;;23.68;61.39
11415;BME280;5763;42.714;23.244;2023-06-14T13:47:13;94257.09;;;23.45;61.53